createdAt,value
2023-01-20T00:02:02.374Z,-1.71
2023-01-20T00:04:33.811Z,-1.57
2023-01-20T00:07:02.877Z,-1.65
2023-01-20T00:09:30.949Z,-1.62
2023-01-20T00:12:06.350Z,-1.59
2023-01-20T00:14:40.342Z,-1.72
2023-01-20T00:17:09.714Z,-1.61
2023-01-20T00:19:42.190Z,-1.72
2023-01-20T00:22:12.251Z,-1.72
2023-01-20T00:24:40.308Z,-1.51
2023-01-20T00:27:08.686Z,-1.32
2023-01-20T00:29:38.596Z,-1.35
2023-01-20T00:32:07.591Z,-1.27
2023-01-20T00:34:49.958Z,-1.32
2023-01-20T00:37:18.005Z,-1.36
2023-01-20T00:39:46.200Z,-1.31
2023-01-20T00:42:14.161Z,-1.14
2023-01-20T00:44:42.130Z,-1.01
2023-01-20T00:47:09.999Z,-1.09
2023-01-20T00:49:38.274Z,-1.14
2023-01-20T00:52:07.926Z,-1.07
2023-01-20T00:54:35.895Z,-1.05
2023-01-20T00:57:03.754Z,-0.99
2023-01-20T00:59:33.063Z,-0.99
2023-01-20T01:02:01.177Z,-0.93
2023-01-20T01:04:29.199Z,-0.93
2023-01-20T01:06:57.339Z,-0.72
2023-01-20T01:09:27.501Z,-0.60
2023-01-20T01:11:55.838Z,-0.50
2023-01-20T01:14:23.841Z,-0.50
2023-01-20T01:16:51.774Z,-0.44
2023-01-20T01:19:20.252Z,-0.47
2023-01-20T01:21:48.178Z,-0.43
2023-01-20T01:24:17.262Z,-0.43
2023-01-20T01:26:46.789Z,-0.40
2023-01-20T01:29:14.813Z,-0.44
2023-01-20T01:31:42.695Z,-0.38
2023-01-20T01:34:10.969Z,-0.37
2023-01-20T01:36:39.166Z,-0.34
2023-01-20T01:39:11.056Z,-0.30
2023-01-20T01:41:42.167Z,-0.35
2023-01-20T01:44:13.357Z,-0.23
2023-01-20T01:46:46.163Z,-0.21
2023-01-20T01:49:19.428Z,-0.17
2023-01-20T01:51:55.826Z,-0.15
2023-01-20T01:54:29.035Z,-0.14
2023-01-20T01:57:11.051Z,-0.15
2023-01-20T01:59:55.452Z,-0.12
2023-01-20T02:02:24.115Z,-0.12
2023-01-20T02:04:53.356Z,-0.14
2023-01-20T02:07:22.972Z,-0.10
2023-01-20T02:09:51.112Z,-0.18
2023-01-20T02:12:21.968Z,-0.13
2023-01-20T02:14:53.556Z,-0.10
2023-01-20T02:17:31.514Z,-0.18
2023-01-20T02:20:38.362Z,-0.07
2023-01-20T02:23:12.542Z,-0.07
2023-01-20T02:26:09.684Z,-0.01
2023-01-20T02:29:27.487Z,-0.01
2023-01-20T02:32:20.151Z,0.00
2023-01-20T02:34:59.071Z,-0.05
2023-01-20T02:37:30.051Z,-0.03
2023-01-20T02:40:13.724Z,-0.03
2023-01-20T02:42:46.999Z,-0.05
2023-01-20T02:45:21.684Z,-0.07
2023-01-20T02:47:56.978Z,-0.09
2023-01-20T02:50:34.179Z,-0.11
2023-01-20T02:53:05.556Z,-0.14
2023-01-20T02:55:39.449Z,-0.19
2023-01-20T02:58:12.164Z,-0.22
2023-01-20T03:00:45.541Z,-0.21
2023-01-20T03:03:20.896Z,-0.28
2023-01-20T03:05:53.110Z,-0.40
2023-01-20T03:08:23.749Z,-0.36
2023-01-20T03:10:55.806Z,-0.37
2023-01-20T03:13:31.222Z,-0.45
2023-01-20T03:16:02.511Z,-0.52
2023-01-20T03:18:46.474Z,-0.44
2023-01-20T03:21:17.861Z,-0.50
2023-01-20T03:23:48.812Z,-0.38
2023-01-20T03:26:19.167Z,-0.42
2023-01-20T03:28:48.863Z,-0.43
2023-01-20T03:31:22.761Z,-0.33
2023-01-20T03:33:55.826Z,-0.33
2023-01-20T03:36:28.504Z,-0.28
2023-01-20T03:38:58.441Z,-0.36
2023-01-20T03:41:34.895Z,-0.36
2023-01-20T03:44:12.981Z,-0.39
2023-01-20T03:46:47.214Z,-0.40
2023-01-20T03:49:26.838Z,-0.39
2023-01-20T03:52:03.225Z,-0.41
2023-01-20T03:54:38.139Z,-0.41
2023-01-20T03:57:12.729Z,-0.41
2023-01-20T03:59:44.440Z,-0.41
2023-01-20T04:02:14.153Z,-0.51
2023-01-20T04:04:46.122Z,-0.36
2023-01-20T04:07:19.639Z,-0.37
2023-01-20T04:09:53.504Z,-0.34
2023-01-20T04:12:21.698Z,-0.36
2023-01-20T04:15:08.881Z,-0.33
2023-01-20T04:17:44.853Z,-0.31
2023-01-20T04:20:27.792Z,-0.27
2023-01-20T04:23:04.374Z,-0.27
2023-01-20T04:25:33.962Z,-0.30
2023-01-20T04:28:09.809Z,-0.24
2023-01-20T04:30:37.717Z,-0.26
2023-01-20T04:33:06.168Z,-0.27
2023-01-20T04:35:36.510Z,-0.28
2023-01-20T04:38:06.799Z,-0.45
2023-01-20T04:40:34.848Z,-0.33
2023-01-20T04:43:02.926Z,-0.27
2023-01-20T04:45:33.417Z,-0.35
2023-01-20T04:48:01.346Z,-0.26
2023-01-20T04:50:29.268Z,-0.21
2023-01-20T04:53:00.872Z,-0.26
2023-01-20T04:55:29.140Z,-0.29
2023-01-20T04:57:58.176Z,-0.30
2023-01-20T05:00:26.808Z,-0.28
2023-01-20T05:02:59.928Z,-0.29
2023-01-20T05:05:28.281Z,-0.26
2023-01-20T05:07:57.149Z,-0.28
2023-01-20T05:10:26.505Z,-0.36
2023-01-20T05:12:57.133Z,-0.21
2023-01-20T05:15:25.129Z,-0.27
2023-01-20T05:17:53.544Z,-0.25
2023-01-20T05:20:21.802Z,-0.26
2023-01-20T05:22:49.897Z,-0.26
2023-01-20T05:25:17.960Z,-0.26
2023-01-20T05:27:47.217Z,-0.23
2023-01-20T05:30:15.562Z,-0.23
2023-01-20T05:32:45.595Z,-0.27
2023-01-20T05:35:14.733Z,-0.26
2023-01-20T05:37:43.079Z,-0.29
2023-01-20T05:40:12.394Z,-0.22
2023-01-20T05:42:40.959Z,-0.24
2023-01-20T05:45:11.199Z,-0.20
2023-01-20T05:47:39.301Z,-0.22
2023-01-20T05:50:09.576Z,-0.21
2023-01-20T05:52:37.649Z,-0.22
2023-01-20T05:55:06.222Z,-0.21
2023-01-20T05:57:34.293Z,-0.27
2023-01-20T06:00:02.169Z,-0.42
2023-01-20T06:02:33.225Z,-0.21
2023-01-20T06:05:01.917Z,-0.21
2023-01-20T06:07:30.506Z,-0.24
2023-01-20T06:09:58.834Z,-0.22
2023-01-20T06:12:27.490Z,-0.24
2023-01-20T06:14:57.453Z,-0.22
2023-01-20T06:17:25.599Z,-0.29
2023-01-20T06:19:55.366Z,-0.24
2023-01-20T06:22:23.471Z,-0.20
2023-01-20T06:24:54.025Z,-0.19
2023-01-20T06:27:24.648Z,-0.25
2023-01-20T06:29:54.287Z,-0.23
2023-01-20T06:32:22.563Z,-0.18
2023-01-20T06:34:53.022Z,-0.20
2023-01-20T06:37:22.398Z,-0.27
2023-01-20T06:39:50.441Z,-0.24
2023-01-20T06:42:18.661Z,-0.19
2023-01-20T06:44:46.754Z,-0.16
2023-01-20T06:47:14.693Z,-0.26
2023-01-20T06:49:43.768Z,-0.34
2023-01-20T06:52:11.745Z,-0.23
2023-01-20T06:54:41.085Z,-0.14
2023-01-20T06:57:10.192Z,-0.20
2023-01-20T06:59:38.425Z,-0.23
2023-01-20T07:02:06.769Z,-0.27
2023-01-20T07:04:34.827Z,-0.16
2023-01-20T07:07:02.633Z,-0.18
2023-01-20T07:09:30.565Z,-0.13
2023-01-20T07:11:59.978Z,-0.13
2023-01-20T07:14:28.115Z,-0.13
2023-01-20T07:16:56.435Z,-0.13
2023-01-20T07:19:24.491Z,-0.15
2023-01-20T07:21:52.492Z,-0.13
2023-01-20T07:24:20.595Z,-0.13
2023-01-20T07:26:48.480Z,-0.16
2023-01-20T07:29:18.054Z,-0.19
2023-01-20T07:31:46.408Z,-0.19
2023-01-20T07:34:14.353Z,-0.19
2023-01-20T07:36:43.278Z,-0.12
2023-01-20T07:39:13.176Z,-0.07
2023-01-20T07:41:41.365Z,-0.05
2023-01-20T07:44:14.481Z,-0.15
2023-01-20T07:46:46.083Z,-0.02
2023-01-20T07:49:14.289Z,-0.12
2023-01-20T07:51:43.582Z,-0.02
2023-01-20T07:54:12.878Z,-0.12
2023-01-20T07:56:41.183Z,-0.01
2023-01-20T07:59:13.127Z,-0.13
2023-01-20T08:01:41.353Z,-0.02
2023-01-20T08:04:10.800Z,0.06
2023-01-20T08:06:40.323Z,0.12
2023-01-20T08:09:12.084Z,0.07
2023-01-20T08:11:40.237Z,-0.07
2023-01-20T08:14:08.469Z,0.08
2023-01-20T08:16:37.780Z,0.12
2023-01-20T08:19:05.788Z,0.15
2023-01-20T08:21:35.183Z,0.10
2023-01-20T08:24:06.685Z,0.14
2023-01-20T08:26:36.917Z,0.19
2023-01-20T08:29:07.465Z,0.19
2023-01-20T08:31:39.682Z,0.19
2023-01-20T08:34:26.327Z,0.19
2023-01-20T08:37:16.159Z,0.27
2023-01-20T08:39:44.318Z,0.24
2023-01-20T08:42:19.543Z,0.27
2023-01-20T08:44:52.972Z,0.30
2023-01-20T08:47:30.064Z,0.23
2023-01-20T08:50:00.401Z,0.29
2023-01-20T08:52:29.752Z,0.26
2023-01-20T08:55:03.799Z,0.35
2023-01-20T08:57:31.644Z,0.38
2023-01-20T09:00:00.646Z,0.35
2023-01-20T09:02:29.840Z,0.39
2023-01-20T09:07:59.850Z,0.39
2023-01-20T09:10:28.036Z,0.43
2023-01-20T09:12:58.262Z,0.31
2023-01-20T09:15:28.990Z,0.42
2023-01-20T09:17:58.733Z,0.41
2023-01-20T09:20:28.904Z,0.50
2023-01-20T09:23:02.995Z,0.40
2023-01-20T09:25:31.344Z,0.55
2023-01-20T09:28:01.961Z,0.51
2023-01-20T09:30:29.824Z,0.47
2023-01-20T09:32:59.592Z,0.53
2023-01-20T09:35:28.079Z,0.60
2023-01-20T09:38:13.705Z,0.49
2023-01-20T09:41:11.713Z,0.48
2023-01-20T09:43:59.924Z,0.62
2023-01-20T09:47:20.468Z,0.41
2023-01-20T09:50:22.601Z,0.61
2023-01-20T09:53:04.907Z,0.53
2023-01-20T09:55:42.699Z,0.42
2023-01-20T09:58:24.519Z,0.38
2023-01-20T10:00:58.853Z,0.41
2023-01-20T10:03:37.543Z,0.64
2023-01-20T10:06:10.855Z,0.64
2023-01-20T10:09:03.697Z,0.71
2023-01-20T10:11:38.543Z,0.55
2023-01-20T10:14:16.380Z,0.76
2023-01-20T10:16:50.707Z,0.70
2023-01-20T10:19:28.073Z,0.76
2023-01-20T10:22:03.332Z,0.90
2023-01-20T10:24:35.364Z,0.83
2023-01-20T10:27:06.132Z,1.00
2023-01-20T10:29:37.578Z,0.90
2023-01-20T10:32:13.091Z,0.97
2023-01-20T10:34:46.330Z,0.94
2023-01-20T10:37:16.112Z,1.21
2023-01-20T10:39:50.887Z,1.15
2023-01-20T10:42:20.143Z,1.08
2023-01-20T10:44:52.911Z,1.05
2023-01-20T10:47:27.082Z,0.92
2023-01-20T10:50:18.274Z,1.03
2023-01-20T10:53:07.159Z,1.10
2023-01-20T10:55:45.825Z,0.91
2023-01-20T10:58:22.350Z,0.87
2023-01-20T11:00:52.727Z,0.89
2023-01-20T11:03:23.941Z,0.88
2023-01-20T11:05:53.126Z,1.00
2023-01-20T11:08:23.428Z,0.99
2023-01-20T11:10:55.733Z,0.92
2023-01-20T11:13:24.505Z,0.96
2023-01-20T11:15:57.716Z,1.07
2023-01-20T11:18:29.022Z,1.01
2023-01-20T11:21:01.687Z,1.06
2023-01-20T11:23:38.163Z,1.07
2023-01-20T11:26:10.993Z,1.10
2023-01-20T11:28:52.640Z,1.09
2023-01-20T11:31:24.043Z,1.15
2023-01-20T11:34:00.199Z,1.15
2023-01-20T11:36:28.793Z,1.08
2023-01-20T11:38:58.473Z,1.13
2023-01-20T11:41:28.578Z,1.22
2023-01-20T11:43:58.460Z,1.19
2023-01-20T11:46:31.249Z,1.20
2023-01-20T11:49:20.182Z,1.17
2023-01-20T11:51:51.813Z,1.23
2023-01-20T11:54:22.340Z,1.35
2023-01-20T11:56:55.672Z,1.42
2023-01-20T11:59:29.866Z,1.31
2023-01-20T12:02:02.472Z,1.33
2023-01-20T12:05:03.360Z,1.22
2023-01-20T12:07:36.680Z,1.16
2023-01-20T12:10:16.054Z,1.16
2023-01-20T12:13:07.561Z,1.23
2023-01-20T12:15:41.876Z,1.23
2023-01-20T12:18:17.863Z,1.20
2023-01-20T12:20:55.869Z,1.11
2023-01-20T12:23:34.621Z,1.04
2023-01-20T12:26:05.217Z,1.15
2023-01-20T12:28:40.030Z,1.14
2023-01-20T12:31:12.409Z,1.16
2023-01-20T12:33:45.513Z,1.16
2023-01-20T12:36:38.375Z,1.14
2023-01-20T12:39:39.684Z,1.13
2023-01-20T12:42:52.165Z,1.32
2023-01-20T12:45:31.459Z,1.32
2023-01-20T12:48:32.152Z,1.26
2023-01-20T12:51:37.592Z,1.32
2023-01-20T12:54:30.526Z,1.17
2023-01-20T12:57:24.921Z,1.13
2023-01-20T13:00:04.855Z,1.06
2023-01-20T13:02:52.386Z,1.21
2023-01-20T13:05:46.100Z,1.10
2023-01-20T13:08:25.691Z,1.07
2023-01-20T13:11:11.176Z,1.29
2023-01-20T13:13:57.373Z,1.24
2023-01-20T13:16:35.287Z,1.24
2023-01-20T13:19:13.624Z,1.10
2023-01-20T13:21:42.804Z,1.02
2023-01-20T13:24:24.571Z,1.23
2023-01-20T13:26:53.717Z,1.23
2023-01-20T13:29:43.752Z,1.28
2023-01-20T13:32:32.230Z,1.17
2023-01-20T13:35:03.851Z,1.12
2023-01-20T13:37:35.541Z,1.10
2023-01-20T13:40:33.081Z,1.16
2023-01-20T13:43:01.170Z,1.12
2023-01-20T13:45:31.539Z,1.25
2023-01-20T13:48:03.772Z,1.12
2023-01-20T13:50:34.215Z,1.19
2023-01-20T13:53:16.144Z,1.24
2023-01-20T13:56:26.325Z,1.05
2023-01-20T13:58:54.924Z,1.09
2023-01-20T14:01:22.996Z,0.97
2023-01-20T14:04:04.167Z,1.10
2023-01-20T14:06:34.234Z,1.13
2023-01-20T14:09:03.829Z,1.14
2023-01-20T14:11:33.500Z,1.17
2023-01-20T14:14:05.365Z,1.21
2023-01-20T14:16:40.489Z,1.08
2023-01-20T14:19:23.567Z,0.90
2023-01-20T14:21:54.667Z,1.05
2023-01-20T14:24:32.742Z,1.10
2023-01-20T14:27:18.875Z,1.11
2023-01-20T14:30:00.484Z,1.06
2023-01-20T14:32:32.761Z,1.18
2023-01-20T14:35:01.824Z,1.12
2023-01-20T14:37:32.053Z,1.07
2023-01-20T14:40:06.891Z,0.95
2023-01-20T14:42:38.663Z,1.06
2023-01-20T14:45:22.089Z,1.02
2023-01-20T14:47:54.417Z,0.97
2023-01-20T14:50:23.959Z,0.98
2023-01-20T14:52:52.448Z,0.94
2023-01-20T14:55:31.806Z,0.86
2023-01-20T14:58:08.375Z,0.84
2023-01-20T15:00:38.269Z,1.00
2023-01-20T15:03:12.386Z,1.01
2023-01-20T15:05:43.025Z,0.99
2023-01-20T15:08:24.445Z,0.90
2023-01-20T15:11:23.612Z,0.94
2023-01-20T15:14:12.914Z,0.98
2023-01-20T15:16:49.336Z,0.88
2023-01-20T15:19:36.079Z,0.99
2023-01-20T15:22:28.293Z,0.98
2023-01-20T15:25:04.459Z,0.89
2023-01-20T15:27:35.112Z,0.95
2023-01-20T15:30:18.818Z,0.88
2023-01-20T15:32:49.220Z,0.84
2023-01-20T15:35:20.078Z,0.87
2023-01-20T15:37:48.447Z,0.75
2023-01-20T15:40:19.988Z,0.81
2023-01-20T15:42:48.809Z,0.82
2023-01-20T15:45:20.165Z,0.75
2023-01-20T15:47:49.758Z,0.73
2023-01-20T15:50:20.682Z,0.84
2023-01-20T15:52:57.924Z,0.85
2023-01-20T15:55:27.877Z,0.73
2023-01-20T15:57:55.841Z,0.79
2023-01-20T16:00:29.697Z,0.75
2023-01-20T16:02:57.662Z,0.83
2023-01-20T16:05:26.367Z,0.82
2023-01-20T16:07:57.933Z,0.80
2023-01-20T16:10:26.049Z,0.82
2023-01-20T16:12:56.425Z,0.80
2023-01-20T16:15:26.613Z,0.82
2023-01-20T16:17:57.038Z,0.84
2023-01-20T16:20:27.409Z,0.86
2023-01-20T16:22:56.720Z,0.83
2023-01-20T16:25:25.767Z,0.81
2023-01-20T16:27:55.755Z,0.82
2023-01-20T16:30:24.801Z,0.77
2023-01-20T16:32:53.198Z,0.80
2023-01-20T16:35:23.682Z,0.79
2023-01-20T16:37:52.418Z,0.83
2023-01-20T16:40:22.295Z,0.78
2023-01-20T16:42:50.324Z,0.83
2023-01-20T16:45:29.098Z,0.81
2023-01-20T16:47:57.366Z,0.86
2023-01-20T16:50:28.336Z,0.81
2023-01-20T16:52:56.939Z,0.83
2023-01-20T16:55:25.402Z,0.79
2023-01-20T16:57:53.265Z,0.82
2023-01-20T17:00:22.587Z,0.81
2023-01-20T17:03:20.956Z,0.84
2023-01-20T17:06:09.882Z,0.85
2023-01-20T17:08:55.441Z,0.83
2023-01-20T17:11:35.858Z,0.85
2023-01-20T17:14:05.665Z,0.83
2023-01-20T17:16:35.480Z,0.82
2023-01-20T17:19:05.492Z,0.89
2023-01-20T17:21:39.941Z,0.88
2023-01-20T17:24:13.247Z,0.85
2023-01-20T17:26:44.370Z,0.88
2023-01-20T17:29:14.529Z,0.83
2023-01-20T17:31:45.760Z,0.83
2023-01-20T17:34:14.182Z,0.91
2023-01-20T17:36:43.571Z,0.93
2023-01-20T17:39:12.925Z,0.79
2023-01-20T17:41:41.447Z,0.90
2023-01-20T17:44:09.644Z,0.82
2023-01-20T17:46:40.210Z,0.93
2023-01-20T17:49:09.937Z,0.77
2023-01-20T17:51:41.378Z,0.90
2023-01-20T17:54:10.839Z,0.88
2023-01-20T17:56:40.129Z,0.90
2023-01-20T17:59:10.166Z,0.91
2023-01-20T18:01:39.448Z,0.90
2023-01-20T18:04:10.517Z,0.85
2023-01-20T18:06:39.307Z,0.77
2023-01-20T18:09:08.718Z,0.80
2023-01-20T18:11:38.474Z,0.82
2023-01-20T18:14:10.529Z,0.73
2023-01-20T18:16:41.707Z,0.84
2023-01-20T18:19:17.588Z,0.82
2023-01-20T18:21:49.868Z,0.73
2023-01-20T18:24:21.917Z,0.66
2023-01-20T18:26:52.329Z,0.77
2023-01-20T18:29:20.286Z,0.86
2023-01-20T18:31:48.438Z,0.75
2023-01-20T18:34:17.141Z,0.76
2023-01-20T18:36:57.020Z,0.68
2023-01-20T18:39:30.537Z,0.79
2023-01-20T18:42:14.024Z,0.66
2023-01-20T18:44:42.154Z,0.73
2023-01-20T18:47:10.379Z,0.67
2023-01-20T18:49:38.770Z,0.75
2023-01-20T18:52:15.378Z,0.77
2023-01-20T18:54:50.523Z,0.73
2023-01-20T18:57:38.452Z,0.66
2023-01-20T19:00:20.290Z,0.82
2023-01-20T19:02:52.490Z,0.77
2023-01-20T19:05:20.575Z,0.73
2023-01-20T19:07:54.265Z,0.77
2023-01-20T19:10:28.451Z,0.81
2023-01-20T19:13:01.055Z,0.78
2023-01-20T19:15:29.170Z,0.85
2023-01-20T19:17:59.478Z,0.89
2023-01-20T19:20:27.676Z,0.84
2023-01-20T19:22:59.008Z,0.75
2023-01-20T19:25:29.650Z,0.86
2023-01-20T19:28:05.430Z,0.87
2023-01-20T19:30:36.398Z,0.87
2023-01-20T19:33:04.747Z,0.82
2023-01-20T19:35:33.550Z,0.78
2023-01-20T19:38:02.035Z,0.62
2023-01-20T19:40:33.961Z,0.74
2023-01-20T19:43:03.587Z,0.71
2023-01-20T19:45:44.885Z,0.52
2023-01-20T19:48:13.758Z,0.62
2023-01-20T19:50:43.034Z,0.47
2023-01-20T19:53:12.438Z,0.45
2023-01-20T19:55:43.268Z,0.42
2023-01-20T19:58:14.959Z,0.42
2023-01-20T20:00:43.279Z,0.42
2023-01-20T20:03:11.359Z,0.35
2023-01-20T20:05:40.662Z,0.26
2023-01-20T20:08:08.662Z,0.22
2023-01-20T20:10:43.263Z,0.27
2023-01-20T20:13:12.860Z,0.24
2023-01-20T20:15:45.248Z,0.13
2023-01-20T20:18:17.861Z,0.12
2023-01-20T20:20:46.085Z,0.17
2023-01-20T20:23:14.254Z,0.10
2023-01-20T20:25:49.865Z,0.08
2023-01-20T20:28:19.509Z,0.07
2023-01-20T20:30:47.786Z,-0.13
2023-01-20T20:33:17.562Z,-0.05
2023-01-20T20:35:47.402Z,-0.03
2023-01-20T20:38:15.648Z,-0.05
2023-01-20T20:40:43.747Z,0.00
2023-01-20T20:43:11.953Z,0.03
2023-01-20T20:45:42.940Z,-0.01
2023-01-20T20:48:11.073Z,0.02
2023-01-20T20:50:39.445Z,0.04
2023-01-20T20:53:08.248Z,0.07
2023-01-20T20:55:40.758Z,-0.18
2023-01-20T20:58:21.075Z,-0.38
2023-01-20T21:01:17.068Z,-0.47
2023-01-20T21:03:47.058Z,-0.68
2023-01-20T21:06:18.154Z,-0.57
2023-01-20T21:08:46.889Z,-0.63
2023-01-20T21:11:14.968Z,-0.54
2023-01-20T21:13:48.878Z,-0.78
2023-01-20T21:16:33.081Z,-0.90
2023-01-20T21:19:07.458Z,-0.87
2023-01-20T21:21:54.932Z,-0.97
2023-01-20T21:24:29.022Z,-0.70
2023-01-20T21:27:17.047Z,-0.96
2023-01-20T21:30:09.969Z,-0.92
2023-01-20T21:32:41.465Z,-1.28
2023-01-20T21:35:10.714Z,-1.03
2023-01-20T21:37:39.060Z,-1.19
2023-01-20T21:40:15.844Z,-0.99
2023-01-20T21:42:43.918Z,-1.03
2023-01-20T21:45:11.708Z,-1.13
2023-01-20T21:47:41.361Z,-1.16
2023-01-20T21:50:29.766Z,-1.16
2023-01-20T21:52:58.072Z,-1.24
2023-01-20T21:55:29.002Z,-1.31
2023-01-20T21:57:56.925Z,-1.30
2023-01-20T22:00:25.306Z,-1.34
2023-01-20T22:02:54.642Z,-1.29
2023-01-20T22:05:22.973Z,-1.40
2023-01-20T22:07:50.996Z,-1.23
2023-01-20T22:10:22.821Z,-1.07
2023-01-20T22:12:52.392Z,-0.99
2023-01-20T22:15:21.853Z,-1.05
2023-01-20T22:17:50.073Z,-0.94
2023-01-20T22:20:22.220Z,-0.94
2023-01-20T22:22:50.525Z,-0.86
2023-01-20T22:25:19.604Z,-0.93
2023-01-20T22:27:49.206Z,-0.94
2023-01-20T22:30:18.909Z,-0.99
2023-01-20T22:32:48.150Z,-1.10
2023-01-20T22:35:16.360Z,-1.19
2023-01-20T22:37:45.935Z,-1.12
2023-01-20T22:40:14.418Z,-1.26
2023-01-20T22:42:44.089Z,-1.43
2023-01-20T22:45:12.830Z,-1.31
2023-01-20T22:47:49.715Z,-1.75
2023-01-20T22:50:19.172Z,-1.72
2023-01-20T22:52:49.951Z,-1.76
2023-01-20T22:55:25.926Z,-1.75
2023-01-20T22:58:02.962Z,-1.86
2023-01-20T23:00:31.231Z,-1.94
2023-01-20T23:02:59.394Z,-2.18
2023-01-20T23:05:33.382Z,-2.14
2023-01-20T23:08:08.959Z,-2.12
2023-01-20T23:10:49.120Z,-1.88
2023-01-20T23:13:23.712Z,-1.75
2023-01-20T23:15:52.253Z,-1.69
2023-01-20T23:18:21.244Z,-1.59
2023-01-20T23:20:49.888Z,-1.58
2023-01-20T23:23:21.173Z,-1.47
2023-01-20T23:25:49.999Z,-1.30
2023-01-20T23:28:19.315Z,-1.34
2023-01-20T23:30:47.313Z,-1.23
2023-01-20T23:33:15.699Z,-1.22
2023-01-20T23:35:46.801Z,-1.26
2023-01-20T23:38:18.190Z,-1.39
2023-01-20T23:40:51.576Z,-1.31
2023-01-20T23:43:19.441Z,-1.22
2023-01-20T23:45:52.177Z,-1.23
2023-01-20T23:48:20.650Z,-1.20
2023-01-20T23:50:48.664Z,-1.20
2023-01-20T23:53:17.220Z,-1.22
2023-01-20T23:55:45.839Z,-1.11
2023-01-20T23:58:15.729Z,-1.04
